Time;durP1;ratioP1;P1;durP2;ratioP2;P2;SDS_P1;SDS_P2;PMS_P1;PMS_P2;Temp;Humidity;BMP_temperature;BMP_pressure;BME280_temperature;BME280_humidity;BME280_pressure;Samples;Min_cycle;Max_cycle;Signal;HPM_P1;HPM_P2
2023/01/12 00:01:22;;;;;;;6.73;5.83;;;7.50;99.90;;;;;;5027834;28;20270;-51
2023/01/12 00:03:48;;;;;;;7.37;5.07;;;7.50;99.90;;;;;;5020179;28;20250;-52
2023/01/12 00:06:14;;;;;;;5.73;4.67;;;7.50;99.90;;;;;;5033471;28;20291;-51
2023/01/12 00:08:40;;;;;;;7.57;4.60;;;7.50;99.90;;;;;;5031299;28;20226;-54
2023/01/12 00:11:06;;;;;;;4.63;4.17;;;7.60;99.90;;;;;;5029949;28;20188;-53
2023/01/12 00:13:32;;;;;;;4.67;3.83;;;7.60;99.90;;;;;;5032418;28;20209;-49
2023/01/12 00:18:46;;;;;;;5.93;4.00;;;7.60;99.90;;;;;;5029291;28;20222;-49
2023/01/12 00:21:13;;;;;;;4.77;4.30;;;7.60;99.90;;;;;;5032325;28;20172;-52
2023/01/12 00:23:39;;;;;;;5.23;4.03;;;7.50;99.90;;;;;;5032494;28;20236;-52
2023/01/12 00:26:07;;;;;;;6.30;4.00;;;7.60;99.90;;;;;;5021587;28;20223;-49
2023/01/12 00:28:34;;;;;;;4.93;3.87;;;7.60;99.90;;;;;;5029787;28;20179;-52
2023/01/12 00:31:06;;;;;;;6.80;4.20;;;7.60;99.90;;;;;;5032612;28;20180;-49
2023/01/12 00:33:33;;;;;;;5.77;4.10;;;7.60;99.90;;;;;;5032190;28;20187;-50
2023/01/12 00:36:05;;;;;;;3.70;3.33;;;7.60;99.90;;;;;;5031846;28;20761;-50
2023/01/12 00:38:32;;;;;;;4.57;3.47;;;7.60;99.90;;;;;;5030970;28;20246;-51
2023/01/12 00:41:03;;;;;;;5.50;3.50;;;7.60;99.90;;;;;;5031402;28;20172;-53
2023/01/12 00:46:13;;;;;;;4.23;3.33;;;7.50;99.90;;;;;;5032416;28;20202;-51
2023/01/12 00:48:39;;;;;;;4.57;3.50;;;7.50;99.90;;;;;;5032143;28;20422;-50
2023/01/12 00:51:04;;;;;;;4.73;3.20;;;7.40;99.90;;;;;;5032428;28;20172;-53
2023/01/12 00:53:30;;;;;;;3.17;2.87;;;7.30;99.90;;;;;;5032438;28;20174;-51
2023/01/12 00:56:03;;;;;;;3.50;2.90;;;7.20;99.90;;;;;;5031768;28;20218;-50
2023/01/12 00:58:29;;;;;;;5.63;3.20;;;7.30;99.90;;;;;;5032065;28;20207;-51
2023/01/12 01:01:03;;;;;;;4.97;3.13;;;7.50;99.90;;;;;;5031877;28;20533;-51
2023/01/12 01:03:29;;;;;;;4.43;3.10;;;7.50;99.90;;;;;;5031929;28;20170;-53
2023/01/12 01:06:05;;;;;;;3.87;2.77;;;7.50;99.90;;;;;;5031306;28;20195;-51
2023/01/12 01:08:34;;;;;;;4.53;2.87;;;7.50;99.90;;;;;;5031619;28;20164;-50
2023/01/12 01:11:02;;;;;;;4.70;2.93;;;7.60;99.90;;;;;;5031867;28;20274;-53
2023/01/12 01:13:27;;;;;;;3.40;2.80;;;7.50;99.90;;;;;;5031716;28;20172;-53
2023/01/12 01:15:53;;;;;;;4.20;2.83;;;7.50;99.90;;;;;;5031538;28;20194;-51
2023/01/12 01:18:18;;;;;;;5.20;2.50;;;7.50;99.90;;;;;;5031482;28;20195;-50
2023/01/12 01:20:47;;;;;;;4.90;2.50;;;7.40;99.90;;;;;;5031758;28;20172;-50
2023/01/12 01:23:12;;;;;;;4.00;2.77;;;7.40;99.90;;;;;;5031887;28;20178;-54
2023/01/12 01:25:38;;;;;;;4.20;2.80;;;7.40;99.90;;;;;;5031377;28;20187;-51
2023/01/12 01:28:03;;;;;;;5.47;2.93;;;7.50;99.90;;;;;;5031575;28;20545;-50
2023/01/12 01:30:29;;;;;;;3.83;3.00;;;7.30;99.90;;;;;;5031716;28;20180;-51
2023/01/12 01:32:54;;;;;;;4.30;3.20;;;7.20;99.90;;;;;;5028575;28;20188;-49
2023/01/12 01:35:20;;;;;;;6.33;3.27;;;7.30;99.90;;;;;;5029972;28;20179;-51
2023/01/12 01:37:45;;;;;;;4.57;3.40;;;7.40;99.90;;;;;;5030809;28;20200;-51
2023/01/12 01:40:11;;;;;;;4.30;3.27;;;7.50;99.90;;;;;;5030563;28;20202;-50
2023/01/12 01:42:39;;;;;;;6.37;4.00;;;7.60;99.90;;;;;;5030169;28;20187;-51
2023/01/12 01:45:05;;;;;;;4.87;3.17;;;7.70;99.90;;;;;;5030631;28;20171;-51
2023/01/12 01:47:42;;;;;;;4.10;3.23;;;7.70;99.90;;;;;;5031227;28;20219;-50
2023/01/12 01:50:22;;;;;;;4.47;3.00;;;7.80;99.90;;;;;;5031062;28;20194;-51
2023/01/12 01:52:54;;;;;;;4.27;3.27;;;6.60;99.90;;;;;;5031017;28;20176;-50
2023/01/12 01:55:27;;;;;;;4.80;3.47;;;8.10;99.90;;;;;;5030725;28;20183;-50
2023/01/12 01:57:59;;;;;;;5.33;3.13;;;8.20;99.90;;;;;;5030989;28;20215;-52
2023/01/12 02:00:25;;;;;;;3.93;2.33;;;8.30;99.90;;;;;;5031368;28;20178;-53
2023/01/12 02:02:51;;;;;;;4.97;2.43;;;8.20;99.90;;;;;;5031442;28;20179;-50
2023/01/12 02:05:21;;;;;;;4.80;2.53;;;8.10;99.90;;;;;;5030732;28;20172;-52
2023/01/12 02:07:48;;;;;;;2.80;2.50;;;8.10;99.90;;;;;;5030835;28;20321;-50
2023/01/12 02:10:14;;;;;;;5.47;2.40;;;8.20;99.90;;;;;;5030890;28;20171;-51
2023/01/12 02:18:28;;;;;;;3.23;2.00;;;8.30;99.90;;;;;;5031036;28;20218;-50
2023/01/12 02:21:03;;;;;;;4.57;2.67;;;8.30;99.90;;;;;;5034941;28;20163;-50
2023/01/12 02:24:16;;;;;;;4.13;2.27;;;8.20;99.90;;;;;;5034983;28;20172;-51
2023/01/12 02:26:47;;;;;;;3.27;2.23;;;8.00;99.90;;;;;;5032338;28;20604;-51
2023/01/12 02:29:24;;;;;;;3.73;2.10;;;7.80;99.90;;;;;;5032558;28;20175;-50
2023/01/12 02:32:07;;;;;;;4.10;2.30;;;7.80;99.90;;;;;;5033757;28;20536;-50
2023/01/12 02:34:45;;;;;;;2.90;2.10;;;6.90;99.90;;;;;;5032446;28;20180;-50
2023/01/12 02:37:27;;;;;;;5.63;2.57;;;7.40;99.90;;;;;;5032040;28;20322;-47
2023/01/12 02:40:01;;;;;;;4.63;2.73;;;7.30;99.90;;;;;;5032633;28;20175;-50
2023/01/12 02:42:43;;;;;;;4.27;2.30;;;7.40;99.90;;;;;;5029395;28;20176;-50
2023/01/12 02:45:30;;;;;;;4.13;2.67;;;7.70;99.90;;;;;;5031985;28;20179;-54
2023/01/12 02:48:25;;;;;;;3.03;2.40;;;8.00;99.90;;;;;;5032231;28;20186;-55
2023/01/12 02:50:57;;;;;;;2.77;2.20;;;8.00;99.90;;;;;;4973246;28;20194;-51
2023/01/12 02:53:37;;;;;;;4.63;2.30;;;7.90;99.90;;;;;;4973375;28;20170;-53
2023/01/12 02:56:05;;;;;;;3.90;2.10;;;7.70;99.90;;;;;;4973145;28;20233;-55
2023/01/12 02:58:34;;;;;;;5.07;2.50;;;8.40;99.90;;;;;;4972872;28;20217;-53
2023/01/12 03:01:02;;;;;;;2.57;2.00;;;7.70;99.90;;;;;;4973179;28;20174;-51
2023/01/12 03:03:28;;;;;;;5.97;2.97;;;8.00;99.90;;;;;;4972921;28;20178;-48
2023/01/12 03:05:57;;;;;;;3.57;2.40;;;7.90;99.90;;;;;;4972912;28;20194;-54
2023/01/12 03:08:27;;;;;;;3.87;2.37;;;7.90;99.90;;;;;;4972639;28;20186;-53
2023/01/12 03:11:15;;;;;;;3.57;2.20;;;8.30;99.90;;;;;;4973068;28;20539;-51
2023/01/12 03:13:48;;;;;;;3.00;2.20;;;7.90;99.90;;;;;;4972518;28;20245;-53
2023/01/12 03:16:18;;;;;;;2.60;2.17;;;7.90;99.90;;;;;;4972736;28;20874;-51
2023/01/12 03:19:08;;;;;;;5.17;2.60;;;7.50;99.90;;;;;;4972386;28;20639;-52
2023/01/12 03:21:52;;;;;;;4.63;2.60;;;8.00;99.90;;;;;;4972986;28;20233;-51
2023/01/12 03:24:44;;;;;;;3.73;2.50;;;7.70;99.90;;;;;;4972432;28;20158;-51
2023/01/12 03:27:38;;;;;;;5.60;2.90;;;7.90;99.90;;;;;;5000938;28;20200;-51
2023/01/12 03:30:26;;;;;;;5.00;2.60;;;7.70;99.90;;;;;;5032919;28;20553;-50
2023/01/12 03:32:52;;;;;;;2.57;2.37;;;7.50;99.90;;;;;;5033676;28;20218;-50
2023/01/12 03:35:23;;;;;;;2.93;2.47;;;7.70;99.90;;;;;;5033195;28;20657;-51
2023/01/12 03:38:06;;;;;;;3.20;2.47;;;7.60;99.90;;;;;;5033651;28;20241;-50
2023/01/12 03:40:43;;;;;;;3.77;2.67;;;7.60;99.90;;;;;;5033683;28;20192;-54
2023/01/12 03:43:12;;;;;;;3.63;3.03;;;7.60;99.90;;;;;;5033687;28;20163;-51
2023/01/12 03:45:55;;;;;;;4.40;2.47;;;7.50;99.90;;;;;;5033077;28;20215;-50
2023/01/12 03:48:39;;;;;;;4.53;2.90;;;7.40;99.90;;;;;;5033794;28;20186;-51
2023/01/12 03:51:11;;;;;;;5.13;2.90;;;7.30;99.90;;;;;;5032386;28;20759;-50
2023/01/12 03:53:39;;;;;;;3.80;2.70;;;7.40;99.90;;;;;;5033119;28;20587;-51
2023/01/12 03:56:07;;;;;;;6.43;2.80;;;7.40;99.90;;;;;;5032957;28;20191;-54
2023/01/12 03:58:34;;;;;;;4.97;2.77;;;7.90;99.90;;;;;;5033064;28;20221;-52
2023/01/12 04:01:01;;;;;;;4.27;2.80;;;7.60;99.90;;;;;;5033450;28;20194;-52
2023/01/12 04:03:26;;;;;;;4.63;2.53;;;7.70;99.90;;;;;;5033275;28;20597;-51
2023/01/12 04:05:52;;;;;;;4.10;2.53;;;7.80;99.90;;;;;;5032647;28;20196;-52
2023/01/12 04:08:17;;;;;;;4.67;2.87;;;7.80;99.90;;;;;;5031917;28;20660;-54
2023/01/12 04:10:43;;;;;;;3.53;2.80;;;7.90;99.90;;;;;;5033092;28;20190;-52
2023/01/12 04:13:09;;;;;;;3.03;2.60;;;7.20;99.90;;;;;;5032906;28;20178;-51
2023/01/12 04:15:41;;;;;;;4.53;2.63;;;8.00;99.90;;;;;;5032617;28;20333;-51
2023/01/12 04:18:08;;;;;;;4.87;2.87;;;8.10;99.90;;;;;;5032798;28;20579;-51
2023/01/12 04:20:33;;;;;;;3.87;2.87;;;8.10;99.90;;;;;;5032908;28;20247;-51
2023/01/12 04:22:59;;;;;;;4.63;2.57;;;7.80;99.90;;;;;;5032683;28;20263;-50
2023/01/12 04:25:24;;;;;;;3.60;2.20;;;7.80;99.90;;;;;;5032372;28;20271;-51
2023/01/12 04:27:53;;;;;;;5.63;2.73;;;7.70;99.90;;;;;;5032607;28;20226;-50
2023/01/12 04:30:22;;;;;;;4.73;2.80;;;7.70;99.90;;;;;;5032792;28;20172;-51
2023/01/12 04:32:48;;;;;;;5.87;2.40;;;7.50;99.90;;;;;;5032707;28;20171;-54
2023/01/12 04:35:15;;;;;;;4.87;2.93;;;7.90;99.90;;;;;;5032157;28;20215;-52
2023/01/12 04:37:41;;;;;;;4.67;3.17;;;7.40;99.90;;;;;;5032446;28;20295;-50
2023/01/12 04:40:09;;;;;;;5.77;3.00;;;7.40;99.90;;;;;;5032537;28;20164;-52
2023/01/12 04:45:19;;;;;;;4.33;3.20;;;7.40;99.90;;;;;;5032106;28;20230;-50
2023/01/12 04:47:44;;;;;;;4.83;3.00;;;7.30;99.90;;;;;;5032477;28;20688;-51
2023/01/12 04:50:10;;;;;;;4.90;2.83;;;7.10;99.90;;;;;;5031757;28;20176;-53
2023/01/12 04:52:36;;;;;;;4.50;2.80;;;7.00;99.90;;;;;;5032370;28;20240;-51
2023/01/12 04:55:04;;;;;;;3.20;2.60;;;5.70;99.90;;;;;;5031809;28;20183;-55
2023/01/12 04:57:30;;;;;;;3.57;3.00;;;7.00;99.90;;;;;;5032132;28;20210;-51
2023/01/12 04:59:55;;;;;;;3.53;2.90;;;6.90;99.90;;;;;;5031958;28;20660;-50
2023/01/12 05:02:21;;;;;;;5.50;2.83;;;6.90;99.90;;;;;;5032191;28;20168;-53
2023/01/12 05:04:47;;;;;;;3.70;2.97;;;6.80;99.90;;;;;;5031666;28;20160;-55
2023/01/12 05:07:13;;;;;;;3.00;2.63;;;6.80;99.90;;;;;;5031886;28;20668;-53
2023/01/12 05:12:23;;;;;;;4.40;2.83;;;6.70;99.90;;;;;;5032076;28;20267;-52
2023/01/12 05:14:49;;;;;;;4.07;2.60;;;6.80;99.90;;;;;;5031386;28;20250;-51
2023/01/12 05:17:15;;;;;;;4.83;2.80;;;6.90;99.90;;;;;;5031245;28;20214;-50
2023/01/12 05:19:41;;;;;;;4.83;2.87;;;6.80;99.90;;;;;;5031965;28;20172;-51
2023/01/12 05:22:06;;;;;;;2.90;2.40;;;6.70;99.90;;;;;;5031673;28;20222;-51
2023/01/12 05:24:32;;;;;;;5.30;2.77;;;6.80;99.90;;;;;;5031363;28;20167;-54
2023/01/12 05:26:59;;;;;;;3.40;2.80;;;6.80;99.90;;;;;;5031491;28;20211;-55
2023/01/12 05:29:25;;;;;;;3.97;2.60;;;6.80;99.90;;;;;;5031806;28;20255;-51
2023/01/12 05:31:50;;;;;;;4.60;2.40;;;6.80;99.90;;;;;;5031410;28;20226;-54
2023/01/12 05:34:18;;;;;;;3.30;2.30;;;6.70;99.90;;;;;;5031281;28;20176;-51
2023/01/12 05:36:44;;;;;;;3.67;2.43;;;6.70;99.90;;;;;;5031298;28;20233;-51
2023/01/12 05:39:10;;;;;;;3.67;2.37;;;6.70;99.90;;;;;;5031213;28;20282;-53
2023/01/12 05:41:35;;;;;;;5.60;2.47;;;6.80;99.90;;;;;;5030704;28;20664;-50
2023/01/12 05:44:01;;;;;;;4.67;2.60;;;6.90;99.90;;;;;;5030865;28;20175;-50
2023/01/12 05:46:29;;;;;;;4.40;2.47;;;6.80;99.90;;;;;;5030593;28;20183;-51
2023/01/12 05:48:56;;;;;;;2.67;1.97;;;6.70;99.90;;;;;;5031302;28;20604;-50
2023/01/12 05:51:25;;;;;;;5.57;2.57;;;6.70;99.90;;;;;;5031372;28;20549;-53
2023/01/12 05:53:50;;;;;;;5.07;2.30;;;6.60;99.90;;;;;;5030836;28;20522;-50
2023/01/12 05:56:25;;;;;;;3.97;2.30;;;6.60;99.90;;;;;;5031054;28;20198;-52
2023/01/12 05:58:56;;;;;;;2.77;2.17;;;6.50;99.90;;;;;;5030824;28;20195;-53
2023/01/12 06:01:22;;;;;;;4.70;2.37;;;6.70;99.90;;;;;;5031279;28;20254;-53
2023/01/12 06:03:52;;;;;;;4.57;2.20;;;6.80;99.90;;;;;;5030872;28;20257;-51
2023/01/12 06:06:19;;;;;;;3.17;2.20;;;6.80;99.90;;;;;;5030899;28;20203;-51
2023/01/12 06:08:45;;;;;;;6.30;2.30;;;6.90;99.90;;;;;;5030881;28;20254;-53
2023/01/12 06:13:55;;;;;;;3.67;2.17;;;6.90;99.90;;;;;;5031115;28;20171;-54
2023/01/12 06:13:59;;;;;;;4.33;2.10;;;6.80;99.90;;;;;;5030888;28;20675;-54
2023/01/12 06:16:26;;;;;;;4.00;2.20;;;6.90;99.90;;;;;;5031162;28;20672;-52
2023/01/12 06:18:52;;;;;;;4.30;2.00;;;6.90;99.90;;;;;;5031002;28;20195;-55
2023/01/12 06:21:17;;;;;;;4.20;2.20;;;7.00;99.90;;;;;;5031093;28;20199;-50
2023/01/12 06:23:43;;;;;;;2.27;1.50;;;7.10;99.90;;;;;;5030957;28;20174;-49
2023/01/12 06:26:08;;;;;;;3.83;2.20;;;7.20;99.90;;;;;;5030597;28;20191;-52
2023/01/12 06:28:35;;;;;;;3.83;2.13;;;7.10;99.90;;;;;;5031006;28;20188;-54
2023/01/12 06:31:03;;;;;;;4.47;2.40;;;7.10;99.90;;;;;;5030918;28;20698;-51
2023/01/12 06:33:30;;;;;;;4.00;2.50;;;7.10;99.90;;;;;;5030928;28;20274;-54
2023/01/12 06:35:56;;;;;;;4.23;2.83;;;8.60;99.90;;;;;;5030333;28;20203;-49
2023/01/12 06:38:24;;;;;;;2.70;1.93;;;7.10;99.90;;;;;;5030501;28;20211;-53
2023/01/12 06:40:49;;;;;;;4.17;2.60;;;7.10;99.90;;;;;;5030661;28;20217;-52
2023/01/12 06:43:15;;;;;;;4.30;2.03;;;7.10;99.90;;;;;;5030933;28;20168;-51
2023/01/12 06:45:41;;;;;;;2.73;2.20;;;7.00;99.90;;;;;;5030531;28;20549;-50
2023/01/12 06:48:07;;;;;;;3.93;2.20;;;6.90;99.90;;;;;;5030758;28;20207;-50
2023/01/12 06:50:33;;;;;;;4.30;2.40;;;7.20;99.90;;;;;;5030794;28;20175;-52
2023/01/12 06:53:00;;;;;;;4.60;2.67;;;6.80;99.90;;;;;;5026798;28;20176;-50
2023/01/12 06:55:25;;;;;;;4.47;2.37;;;6.80;99.90;;;;;;5028865;28;20219;-50
2023/01/12 06:57:51;;;;;;;5.23;2.53;;;6.90;99.90;;;;;;5029144;28;20715;-50
2023/01/12 07:00:17;;;;;;;3.13;2.43;;;7.00;99.90;;;;;;5029742;28;20294;-51
2023/01/12 07:02:42;;;;;;;3.03;1.93;;;7.00;99.90;;;;;;5023280;28;20602;-53
2023/01/12 07:05:08;;;;;;;4.67;2.40;;;7.10;99.90;;;;;;5025811;28;20173;-48
2023/01/12 07:07:36;;;;;;;3.53;2.27;;;7.10;99.90;;;;;;5014243;28;20645;-51
2023/01/12 07:10:02;;;;;;;4.00;2.67;;;7.10;99.90;;;;;;5020572;28;20180;-51
2023/01/12 07:12:28;;;;;;;2.47;2.00;;;7.10;99.90;;;;;;5024877;28;20598;-51
2023/01/12 07:14:55;;;;;;;3.67;1.90;;;7.10;99.90;;;;;;5032792;28;20286;-52
2023/01/12 07:17:20;;;;;;;3.13;2.20;;;7.20;99.90;;;;;;5032096;28;20191;-51
2023/01/12 07:19:46;;;;;;;3.00;2.10;;;7.20;99.90;;;;;;5029116;28;20180;-51
2023/01/12 07:22:11;;;;;;;3.17;1.93;;;7.20;99.90;;;;;;5015742;28;20264;-51
2023/01/12 07:24:37;;;;;;;3.30;2.13;;;7.30;99.90;;;;;;5013566;28;20264;-49
2023/01/12 07:27:03;;;;;;;3.40;2.17;;;7.30;99.90;;;;;;5029661;28;20278;-49
2023/01/12 07:29:28;;;;;;;4.23;2.03;;;7.40;99.90;;;;;;5033432;28;20168;-52
2023/01/12 07:31:54;;;;;;;3.37;2.10;;;7.60;99.90;;;;;;5030885;28;20584;-50
2023/01/12 07:34:20;;;;;;;2.97;2.20;;;7.70;99.90;;;;;;5022182;28;20168;-50
2023/01/12 07:36:49;;;;;;;3.30;1.80;;;7.70;99.90;;;;;;5032990;28;20208;-50
2023/01/12 07:39:15;;;;;;;3.60;1.80;;;7.70;99.90;;;;;;5029251;28;20259;-54
2023/01/12 07:44:24;;;;;;;3.43;1.80;;;7.40;99.90;;;;;;5022487;28;20233;-47
2023/01/12 07:46:50;;;;;;;4.70;1.70;;;7.40;99.90;;;;;;5029171;28;20203;-49
2023/01/12 07:49:15;;;;;;;1.70;1.47;;;7.30;99.90;;;;;;5027718;28;20188;-51
2023/01/12 07:51:41;;;;;;;2.43;1.97;;;7.10;99.90;;;;;;5032953;28;20257;-54
2023/01/12 07:54:07;;;;;;;2.83;1.83;;;7.10;99.90;;;;;;5031284;28;20609;-52
2023/01/12 07:56:32;;;;;;;3.47;2.00;;;7.10;99.90;;;;;;5032729;28;20588;-49
2023/01/12 07:58:58;;;;;;;3.33;1.83;;;7.20;99.90;;;;;;5018422;28;20206;-54
2023/01/12 08:01:23;;;;;;;2.27;1.70;;;7.20;99.90;;;;;;5030905;28;20236;-49
2023/01/12 08:03:49;;;;;;;2.93;2.10;;;7.20;99.90;;;;;;5028426;28;20184;-49
2023/01/12 08:06:15;;;;;;;4.30;1.80;;;7.20;99.90;;;;;;5031867;28;20199;-50
2023/01/12 08:08:40;;;;;;;2.80;1.60;;;7.30;99.90;;;;;;5032507;28;20183;-50
2023/01/12 08:11:08;;;;;;;3.23;1.90;;;7.20;99.90;;;;;;5033193;28;20203;-50
2023/01/12 08:13:34;;;;;;;5.83;2.20;;;7.10;99.90;;;;;;5032409;28;20180;-46
2023/01/12 08:16:06;;;;;;;3.57;1.90;;;6.90;99.90;;;;;;5031744;28;20199;-47
2023/01/12 08:18:42;;;;;;;2.53;1.90;;;6.80;99.90;;;;;;5032831;28;20199;-50
2023/01/12 08:21:11;;;;;;;3.27;2.83;;;6.80;99.90;;;;;;5032068;28;20221;-48
2023/01/12 08:23:41;;;;;;;4.00;2.90;;;6.90;99.90;;;;;;5032459;28;20167;-49
2023/01/12 08:26:14;;;;;;;2.83;1.83;;;7.00;99.90;;;;;;5032621;28;20198;-48
2023/01/12 08:28:45;;;;;;;2.90;1.80;;;7.20;99.90;;;;;;5032348;28;20192;-49
2023/01/12 08:31:12;;;;;;;4.43;2.03;;;7.40;99.90;;;;;;5032487;28;20168;-51
2023/01/12 08:33:39;;;;;;;3.10;2.00;;;8.80;99.90;;;;;;5033599;28;20218;-54
2023/01/12 08:36:08;;;;;;;4.77;2.30;;;7.60;99.90;;;;;;5032468;28;20238;-50
2023/01/12 08:38:33;;;;;;;3.13;1.90;;;7.70;99.90;;;;;;5032456;28;20227;-49
2023/01/12 08:44:01;;;;;;;3.10;1.83;;;8.00;99.90;;;;;;5032315;28;20248;-49
2023/01/12 08:46:51;;;;;;;4.63;4.23;;;8.10;99.90;;;;;;5032648;28;20215;-52
2023/01/12 08:49:19;;;;;;;8.30;4.20;;;8.30;99.90;;;;;;5032066;28;20195;-51
2023/01/12 08:51:45;;;;;;;4.53;4.07;;;8.30;99.90;;;;;;5032383;28;20176;-49
2023/01/12 08:54:12;;;;;;;3.70;2.00;;;8.30;99.90;;;;;;5031846;28;20182;-49
2023/01/12 08:56:38;;;;;;;6.33;1.80;;;8.20;99.90;;;;;;5031835;28;20254;-49
2023/01/12 08:59:04;;;;;;;2.47;1.60;;;8.20;99.90;;;;;;5032284;28;20569;-50
2023/01/12 09:01:30;;;;;;;5.00;2.00;;;8.40;99.90;;;;;;5032263;28;20195;-44
2023/01/12 09:03:56;;;;;;;2.13;1.53;;;8.30;99.90;;;;;;5031844;28;20180;-49
2023/01/12 09:06:28;;;;;;;2.90;1.63;;;8.30;99.90;;;;;;5031920;28;20583;-49
2023/01/12 09:09:02;;;;;;;2.80;1.70;;;8.30;99.90;;;;;;5032175;28;20684;-48
2023/01/12 09:11:29;;;;;;;3.77;1.90;;;8.50;99.90;;;;;;5032086;28;20255;-47
2023/01/12 09:13:57;;;;;;;3.90;1.83;;;8.50;99.90;;;;;;5028973;28;20184;-45
2023/01/12 09:16:24;;;;;;;3.67;1.97;;;8.40;99.90;;;;;;5027197;28;20290;-46
2023/01/12 09:18:50;;;;;;;1.93;1.50;;;8.30;99.90;;;;;;5031320;28;20192;-46
2023/01/12 09:21:21;;;;;;;3.03;1.57;;;8.30;99.90;;;;;;5031435;28;20172;-46
2023/01/12 09:23:51;;;;;;;3.93;1.80;;;8.40;99.90;;;;;;5031305;28;20171;-49
2023/01/12 09:26:30;;;;;;;1.90;1.70;;;8.60;99.90;;;;;;5031631;28;20696;-48
2023/01/12 09:29:01;;;;;;;3.57;1.70;;;8.80;99.90;;;;;;5031266;28;20241;-49
2023/01/12 09:31:28;;;;;;;4.67;1.90;;;9.10;99.90;;;;;;5031376;28;20176;-50
2023/01/12 09:33:55;;;;;;;4.10;1.70;;;9.50;99.90;;;;;;5031255;28;20183;-52
2023/01/12 09:36:32;;;;;;;2.73;1.67;;;9.90;99.90;;;;;;5031587;28;20195;-49
2023/01/12 09:38:58;;;;;;;3.63;1.97;;;10.10;99.90;;;;;;5031530;28;20202;-49
2023/01/12 09:47:38;;;;;;;2.83;1.70;;;10.70;99.90;;;;;;5030640;28;20301;-48
2023/01/12 09:50:15;;;;;;;3.40;1.90;;;11.10;99.90;;;;;;5030482;28;20225;-46
2023/01/12 09:52:52;;;;;;;2.33;1.33;;;10.90;99.90;;;;;;5030521;28;20168;-48
2023/01/12 09:55:24;;;;;;;2.63;1.63;;;10.50;99.90;;;;;;5030975;28;20163;-49
2023/01/12 09:58:16;;;;;;;3.63;1.93;;;9.90;99.90;;;;;;5031238;28;20222;-50
2023/01/12 10:00:41;;;;;;;3.47;2.00;;;9.10;99.90;;;;;;5031158;28;20655;-52
2023/01/12 10:03:10;;;;;;;2.73;1.77;;;8.90;99.90;;;;;;5031455;28;20234;-48
2023/01/12 10:05:39;;;;;;;2.10;1.53;;;8.80;99.90;;;;;;5030889;28;20195;-50
2023/01/12 10:08:14;;;;;;;2.00;1.17;;;8.80;99.90;;;;;;5031489;28;20178;-47
2023/01/12 10:10:47;;;;;;;3.40;2.03;;;8.90;99.90;;;;;;5031364;28;20178;-49
2023/01/12 10:13:13;;;;;;;4.97;1.90;;;8.80;99.90;;;;;;5031203;28;20544;-49
2023/01/12 10:15:42;;;;;;;3.83;2.23;;;8.90;99.90;;;;;;5030855;28;20599;-48
2023/01/12 10:18:10;;;;;;;3.47;2.00;;;8.80;99.90;;;;;;5031114;28;20274;-48
2023/01/12 10:20:42;;;;;;;4.73;2.20;;;8.70;99.90;;;;;;5031159;28;20168;-49
2023/01/12 10:23:07;;;;;;;3.53;1.90;;;8.50;99.90;;;;;;5028837;28;20237;-49
2023/01/12 10:25:45;;;;;;;3.20;1.90;;;8.20;99.90;;;;;;5028400;28;20204;-53
2023/01/12 10:28:23;;;;;;;3.77;1.93;;;8.00;99.90;;;;;;5031055;28;20179;-49
2023/01/12 10:30:49;;;;;;;3.67;2.07;;;8.00;99.90;;;;;;5031015;28;20178;-50
2023/01/12 10:33:16;;;;;;;3.33;2.00;;;8.00;99.90;;;;;;5030999;28;20255;-49
2023/01/12 10:35:53;;;;;;;3.50;2.03;;;8.00;99.90;;;;;;5010892;28;20261;-53
2023/01/12 10:38:33;;;;;;;4.73;2.17;;;8.00;99.90;;;;;;5019148;28;20234;-51
2023/01/12 10:41:04;;;;;;;3.83;1.40;;;7.50;99.90;;;;;;5033156;28;20175;-50
2023/01/12 10:43:33;;;;;;;3.43;1.80;;;7.90;99.90;;;;;;5033963;28;20251;-50
2023/01/12 10:46:17;;;;;;;5.07;2.07;;;8.00;99.90;;;;;;5033531;28;20195;-51
2023/01/12 10:48:46;;;;;;;4.63;2.27;;;8.00;99.90;;;;;;5031522;28;20278;-54
2023/01/12 10:51:22;;;;;;;3.23;2.03;;;8.00;99.90;;;;;;5033900;28;20171;-45
2023/01/12 10:54:00;;;;;;;4.53;1.97;;;8.20;99.90;;;;;;5031157;28;20186;-54
2023/01/12 10:56:36;;;;;;;4.83;2.27;;;8.40;99.90;;;;;;5032101;28;20227;-51
2023/01/12 10:59:03;;;;;;;2.37;1.90;;;8.50;99.90;;;;;;5032891;28;20207;-53
2023/01/12 11:02:01;;;;;;;2.30;1.80;;;8.70;99.90;;;;;;5034135;28;20277;-50
2023/01/12 11:04:28;;;;;;;4.03;1.80;;;9.00;99.90;;;;;;5017501;28;20556;-53
2023/01/12 11:06:59;;;;;;;3.80;1.80;;;9.10;99.90;;;;;;5023277;28;20270;-53
2023/01/12 11:09:26;;;;;;;4.43;2.03;;;8.70;99.90;;;;;;5031703;28;20287;-51
2023/01/12 11:12:00;;;;;;;3.77;2.13;;;8.50;99.90;;;;;;5027538;28;20263;-50
2023/01/12 11:14:36;;;;;;;5.57;2.27;;;8.70;99.90;;;;;;5023036;28;20174;-49
2023/01/12 11:17:12;;;;;;;7.10;2.50;;;8.50;99.90;;;;;;5031281;28;20241;-50
2023/01/12 11:19:41;;;;;;;4.47;2.40;;;8.40;99.90;;;;;;5031865;28;20171;-46
2023/01/12 11:22:12;;;;;;;5.73;2.20;;;8.40;99.90;;;;;;5031384;28;20263;-51
2023/01/12 11:24:43;;;;;;;2.83;1.83;;;8.50;99.90;;;;;;5031172;28;20167;-52
2023/01/12 11:27:20;;;;;;;3.50;2.13;;;8.50;99.90;;;;;;5024027;28;20189;-52
2023/01/12 11:30:03;;;;;;;6.40;2.40;;;8.80;99.90;;;;;;5019598;28;20182;-50
2023/01/12 11:32:34;;;;;;;4.67;2.40;;;8.90;99.90;;;;;;5025120;28;20190;-50
2023/01/12 11:35:28;;;;;;;3.13;2.20;;;9.00;99.90;;;;;;5031353;28;20184;-53
2023/01/12 11:37:58;;;;;;;3.70;2.10;;;9.10;99.90;;;;;;4971303;28;20221;-50
2023/01/12 11:40:32;;;;;;;4.20;2.10;;;9.10;99.90;;;;;;4976401;28;20189;-53
2023/01/12 11:46:06;;;;;;;3.73;2.33;;;8.90;99.90;;;;;;4993480;28;20235;-51
2023/01/12 11:48:38;;;;;;;7.53;2.30;;;8.80;99.90;;;;;;5003423;28;20195;-52
2023/01/12 11:51:04;;;;;;;5.33;2.67;;;8.80;99.90;;;;;;5011164;28;20176;-51
2023/01/12 11:53:30;;;;;;;4.13;2.23;;;9.00;99.90;;;;;;5011423;28;20191;-52
2023/01/12 11:56:07;;;;;;;3.47;2.33;;;9.00;99.90;;;;;;5011103;28;20586;-51
2023/01/12 11:58:52;;;;;;;4.20;2.40;;;9.10;99.90;;;;;;5011305;28;20716;-51
2023/01/12 12:01:49;;;;;;;4.00;2.50;;;9.60;99.90;;;;;;5001514;28;20189;-55
2023/01/12 12:04:47;;;;;;;3.07;2.00;;;9.60;99.90;;;;;;4982935;28;20184;-50
2023/01/12 12:07:44;;;;;;;6.13;2.07;;;10.80;99.90;;;;;;4992088;28;20215;-50
2023/01/12 12:10:27;;;;;;;3.73;1.83;;;11.70;99.90;;;;;;4979304;28;20177;-50
2023/01/12 12:13:31;;;;;;;3.23;1.80;;;12.10;99.90;;;;;;5002806;28;20638;-50
2023/01/12 12:16:15;;;;;;;3.87;1.80;;;12.10;99.90;;;;;;5031852;28;20203;-51
2023/01/12 12:19:08;;;;;;;3.20;2.10;;;12.10;99.90;;;;;;5032808;28;20246;-53
2023/01/12 12:21:52;;;;;;;2.43;1.80;;;11.90;99.90;;;;;;5028082;28;20178;-50
2023/01/12 12:24:41;;;;;;;4.50;2.50;;;11.70;99.90;;;;;;5032506;28;20263;-51
2023/01/12 12:27:39;;;;;;;3.50;1.83;;;11.80;99.90;;;;;;5032722;28;20188;-52
2023/01/12 12:30:35;;;;;;;3.03;1.87;;;12.10;99.90;;;;;;5032724;28;20171;-50
2023/01/12 12:33:11;;;;;;;2.70;1.57;;;12.30;99.90;;;;;;5032741;28;20254;-50
2023/01/12 12:35:49;;;;;;;2.43;1.53;;;12.40;99.90;;;;;;5032260;28;20847;-50
2023/01/12 12:38:19;;;;;;;4.07;1.87;;;12.40;99.90;;;;;;5025175;28;20254;-52
2023/01/12 12:47:41;;;;;;;4.50;1.53;;;11.50;99.90;;;;;;5032329;28;20525;-50
2023/01/12 12:50:40;;;;;;;1.73;1.37;;;11.10;99.90;;;;;;5032544;28;20164;-52
2023/01/12 12:53:12;;;;;;;2.43;1.20;;;10.80;99.90;;;;;;5032437;28;20168;-55
2023/01/12 12:55:37;;;;;;;1.37;1.27;;;10.70;99.90;;;;;;5031940;28;20191;-51
2023/01/12 12:58:23;;;;;;;1.77;1.30;;;10.60;99.90;;;;;;5032141;28;20211;-52
2023/01/12 13:00:50;;;;;;;2.10;1.30;;;10.40;99.90;;;;;;5032017;28;20269;-51
2023/01/12 13:03:40;;;;;;;3.07;1.60;;;10.40;99.90;;;;;;5031507;28;20178;-54
2023/01/12 13:06:14;;;;;;;2.13;1.40;;;10.40;99.90;;;;;;5031915;28;20199;-55
2023/01/12 13:08:41;;;;;;;2.33;1.27;;;10.40;99.90;;;;;;5032210;28;20193;-51
2023/01/12 13:11:06;;;;;;;1.87;1.30;;;10.10;99.90;;;;;;5031752;28;20175;-52
2023/01/12 13:13:36;;;;;;;3.77;1.23;;;9.90;99.90;;;;;;5031942;28;20198;-53
2023/01/12 13:16:41;;;;;;;2.23;1.30;;;9.80;99.90;;;;;;5031834;28;20210;-51
2023/01/12 13:19:12;;;;;;;2.10;1.40;;;9.50;99.90;;;;;;5031623;28;20290;-52
2023/01/12 13:21:58;;;;;;;2.37;1.23;;;9.70;99.90;;;;;;5032041;28;20176;-51
2023/01/12 13:24:38;;;;;;;2.77;1.10;;;9.70;99.90;;;;;;5031566;28;20710;-53
2023/01/12 13:27:42;;;;;;;2.37;1.10;;;9.60;99.90;;;;;;5031697;28;20260;-51
2023/01/12 13:30:28;;;;;;;1.20;1.10;;;9.60;99.90;;;;;;5031563;28;20176;-52
2023/01/12 13:33:13;;;;;;;1.13;1.00;;;9.60;99.90;;;;;;5031870;28;20274;-51
2023/01/12 13:35:39;;;;;;;2.40;1.47;;;9.60;99.90;;;;;;5031296;28;20653;-51
2023/01/12 13:38:43;;;;;;;1.77;1.10;;;9.50;99.90;;;;;;5031602;28;20213;-52
2023/01/12 13:44:24;;;;;;;3.00;1.23;;;9.40;99.90;;;;;;5031636;28;20529;-54
2023/01/12 13:46:58;;;;;;;2.67;1.57;;;9.40;99.90;;;;;;5031719;28;20799;-54
2023/01/12 13:49:27;;;;;;;2.30;1.40;;;9.60;99.90;;;;;;5031658;28;20180;-52
2023/01/12 13:52:02;;;;;;;2.50;1.47;;;9.90;99.90;;;;;;5031507;28;20199;-51
2023/01/12 13:54:28;;;;;;;1.70;1.17;;;10.10;99.90;;;;;;5031228;28;20199;-51
2023/01/12 13:57:09;;;;;;;2.77;1.23;;;10.20;99.90;;;;;;5031429;28;20208;-50
2023/01/12 13:59:35;;;;;;;1.93;1.00;;;11.10;99.90;;;;;;5031387;28;20390;-50